Time;durP1;ratioP1;P1;durP2;ratioP2;P2;SDS_P1;SDS_P2;PMS_P1;PMS_P2;Temp;Humidity;BMP_temperature;BMP_pressure;BME280_temperature;BME280_humidity;BME280_pressure;Samples;Min_cycle;Max_cycle;Signal;HPM_P1;HPM_P2
2021/09/09 00:00:01;;;;;;;11.70;10.60;;;18.20;97.90;;;;;;5097573;28;20437;-36
2021/09/09 00:02:26;;;;;;;11.53;9.70;;;18.20;97.90;;;;;;5097620;28;20603;-37
2021/09/09 00:04:52;;;;;;;11.50;10.50;;;18.20;97.80;;;;;;5098014;28;20212;-35
2021/09/09 00:07:19;;;;;;;11.30;10.30;;;18.20;97.80;;;;;;5097878;28;20168;-35
2021/09/09 00:09:45;;;;;;;10.40;9.50;;;18.20;97.70;;;;;;5097462;28;20422;-37
2021/09/09 00:12:10;;;;;;;11.97;10.63;;;18.20;97.60;;;;;;5097321;28;20192;-35
2021/09/09 00:14:36;;;;;;;11.50;10.33;;;18.20;97.90;;;;;;5098031;28;20430;-36
2021/09/09 00:17:02;;;;;;;12.43;11.33;;;18.20;97.50;;;;;;5097609;28;20176;-36
2021/09/09 00:19:28;;;;;;;11.23;10.23;;;18.20;97.50;;;;;;5097221;28;20487;-36
2021/09/09 00:21:54;;;;;;;11.80;10.60;;;18.30;97.50;;;;;;5097704;28;20411;-37
2021/09/09 00:24:19;;;;;;;11.50;10.47;;;18.30;97.50;;;;;;5097391;28;20207;-45
2021/09/09 00:26:46;;;;;;;12.00;11.00;;;18.20;97.60;;;;;;5097471;28;20620;-45
2021/09/09 00:29:12;;;;;;;11.33;10.33;;;18.20;97.60;;;;;;5096714;28;20407;-45
2021/09/09 00:31:38;;;;;;;11.80;10.70;;;18.20;97.70;;;;;;5101171;28;20466;-45
2021/09/09 00:34:03;;;;;;;11.00;10.03;;;18.20;97.80;;;;;;5101238;28;20196;-45
2021/09/09 00:36:29;;;;;;;11.13;10.03;;;18.10;97.80;;;;;;5101082;28;20414;-45
2021/09/09 00:38:55;;;;;;;11.67;10.67;;;18.10;97.90;;;;;;5101242;28;20213;-45
2021/09/09 00:41:23;;;;;;;13.33;11.50;;;18.00;97.90;;;;;;5101055;28;20490;-45
2021/09/09 00:43:48;;;;;;;12.18;11.07;;;18.10;98.00;;;;;;5101192;28;20295;-45
2021/09/09 00:46:20;;;;;;;9.93;9.13;;;18.10;98.00;;;;;;5100950;28;20272;-45
2021/09/09 00:48:46;;;;;;;11.30;10.30;;;18.00;97.90;;;;;;5100899;28;20414;-45
2021/09/09 00:51:12;;;;;;;11.23;10.27;;;18.00;97.90;;;;;;5100830;28;20422;-45
2021/09/09 00:53:38;;;;;;;12.48;11.15;;;18.10;97.80;;;;;;5100972;28;20237;-45
2021/09/09 00:56:04;;;;;;;11.30;10.27;;;18.10;97.70;;;;;;5100387;28;20181;-45
2021/09/09 00:58:30;;;;;;;12.73;11.53;;;18.10;97.70;;;;;;5100706;28;20418;-45
2021/09/09 01:00:56;;;;;;;11.20;10.10;;;18.10;97.70;;;;;;5099670;28;20469;-45
2021/09/09 01:03:22;;;;;;;11.67;10.67;;;18.10;97.70;;;;;;5100799;28;20479;-45
2021/09/09 01:05:48;;;;;;;10.67;9.67;;;18.10;97.70;;;;;;5100230;28;20824;-45
2021/09/09 01:08:13;;;;;;;11.10;10.10;;;18.10;97.70;;;;;;5082438;28;20588;-45
2021/09/09 01:10:39;;;;;;;11.57;10.53;;;18.10;97.60;;;;;;5099194;28;20286;-45
2021/09/09 01:13:09;;;;;;;12.17;10.97;;;18.10;97.50;;;;;;5100472;28;20177;-45
2021/09/09 01:15:45;;;;;;;12.10;10.80;;;18.20;97.60;;;;;;5099965;28;20848;-45
2021/09/09 01:18:13;;;;;;;10.70;9.70;;;18.10;97.60;;;;;;5098734;28;20455;-45
2021/09/09 01:20:39;;;;;;;12.30;11.13;;;18.10;97.60;;;;;;5098714;28;20822;-45
2021/09/09 01:23:06;;;;;;;10.73;9.83;;;18.10;97.70;;;;;;5100459;28;20463;-45
2021/09/09 01:25:31;;;;;;;11.07;9.97;;;18.00;97.90;;;;;;5099247;28;20481;-45
2021/09/09 01:27:57;;;;;;;10.88;9.88;;;18.00;98.00;;;;;;5099622;28;20406;-45
2021/09/09 01:30:23;;;;;;;11.77;10.53;;;18.00;98.20;;;;;;5100363;28;20191;-45
2021/09/09 01:32:49;;;;;;;11.27;10.30;;;17.90;98.30;;;;;;5099960;28;20293;-45
2021/09/09 01:35:15;;;;;;;11.40;10.40;;;17.90;98.30;;;;;;5099723;28;20426;-45
2021/09/09 01:37:40;;;;;;;12.43;11.33;;;17.90;98.50;;;;;;5099393;28;20418;-45
2021/09/09 01:40:07;;;;;;;11.17;10.13;;;17.90;98.60;;;;;;5099742;28;20628;-45
2021/09/09 01:42:33;;;;;;;12.43;11.23;;;17.90;98.50;;;;;;5099739;28;20180;-45
2021/09/09 01:44:58;;;;;;;11.10;10.20;;;17.90;98.50;;;;;;5098735;28;20542;-46
2021/09/09 01:47:24;;;;;;;11.87;10.83;;;17.90;98.40;;;;;;5099398;28;20184;-45
2021/09/09 01:49:51;;;;;;;12.40;10.90;;;17.90;98.40;;;;;;5099831;28;20173;-45
2021/09/09 01:52:16;;;;;;;11.83;10.73;;;17.90;98.40;;;;;;5098706;28;20859;-45
2021/09/09 01:54:42;;;;;;;11.30;10.30;;;17.90;98.50;;;;;;5099672;28;20410;-45
2021/09/09 01:57:08;;;;;;;11.93;10.83;;;17.90;98.50;;;;;;5099138;28;20173;-45
2021/09/09 01:59:34;;;;;;;12.17;10.90;;;17.80;98.60;;;;;;5099614;28;20210;-45
2021/09/09 02:02:00;;;;;;;12.80;11.50;;;17.80;98.60;;;;;;5099561;28;20520;-45
2021/09/09 02:04:28;;;;;;;11.87;10.60;;;17.80;98.70;;;;;;5099485;28;20532;-45
2021/09/09 02:06:55;;;;;;;12.03;10.93;;;17.70;98.70;;;;;;5098946;28;20177;-45
2021/09/09 02:09:21;;;;;;;11.87;10.97;;;17.70;98.70;;;;;;5099156;28;20410;-45
2021/09/09 02:11:46;;;;;;;11.47;10.37;;;17.70;98.80;;;;;;5098243;28;20670;-45
2021/09/09 02:14:12;;;;;;;13.07;11.97;;;17.70;98.90;;;;;;5098994;28;20693;-45
2021/09/09 02:16:37;;;;;;;10.77;9.77;;;17.70;98.90;;;;;;5098642;28;20581;-45
2021/09/09 02:19:03;;;;;;;12.00;10.90;;;17.60;98.90;;;;;;5098836;28;20183;-45
2021/09/09 02:21:29;;;;;;;12.10;11.00;;;17.60;99.00;;;;;;5098861;28;20259;-45
2021/09/09 02:23:55;;;;;;;12.20;11.17;;;17.60;99.20;;;;;;5098831;28;20454;-45
2021/09/09 02:26:21;;;;;;;12.13;10.93;;;17.60;99.10;;;;;;5099247;28;20180;-45
2021/09/09 02:28:47;;;;;;;11.40;10.50;;;17.60;99.10;;;;;;5099024;28;20581;-45
2021/09/09 02:31:12;;;;;;;12.82;11.73;;;17.60;99.10;;;;;;5097645;28;20473;-45
2021/09/09 02:33:38;;;;;;;13.23;11.97;;;17.60;99.10;;;;;;5099148;28;20184;-45
2021/09/09 02:36:04;;;;;;;12.63;11.63;;;17.60;99.10;;;;;;5098769;28;20472;-45
2021/09/09 02:38:30;;;;;;;11.50;10.50;;;17.60;99.10;;;;;;5098563;28;20830;-45
2021/09/09 02:40:55;;;;;;;13.43;12.13;;;17.70;99.10;;;;;;5098552;28;20411;-45
2021/09/09 02:43:21;;;;;;;11.80;10.70;;;17.70;99.10;;;;;;5098326;28;20422;-45
2021/09/09 02:45:47;;;;;;;11.70;10.60;;;17.70;99.00;;;;;;5098862;28;20169;-45
2021/09/09 02:48:13;;;;;;;12.37;11.03;;;17.60;99.00;;;;;;5098334;28;20199;-45
2021/09/09 02:50:38;;;;;;;13.10;11.47;;;17.60;99.00;;;;;;5098819;28;20495;-45
2021/09/09 02:53:04;;;;;;;12.30;11.23;;;17.60;99.10;;;;;;5097705;28;20426;-45
2021/09/09 02:55:30;;;;;;;11.80;10.70;;;17.60;99.10;;;;;;5098304;28;20172;-46
2021/09/09 02:57:56;;;;;;;12.93;11.83;;;17.60;99.20;;;;;;5098501;28;20273;-45
2021/09/09 03:00:21;;;;;;;11.63;10.63;;;17.60;99.20;;;;;;5098337;28;20407;-45
2021/09/09 03:02:47;;;;;;;12.23;11.20;;;17.60;99.10;;;;;;5097662;28;20426;-45
2021/09/09 03:05:13;;;;;;;12.90;11.73;;;17.60;99.10;;;;;;5098468;28;20196;-45
2021/09/09 03:07:39;;;;;;;12.00;10.90;;;17.60;99.20;;;;;;5097963;28;20488;-45
2021/09/09 03:10:06;;;;;;;12.43;11.20;;;17.50;99.10;;;;;;5098209;28;20160;-45
2021/09/09 03:12:32;;;;;;;12.13;11.03;;;17.50;99.20;;;;;;5098215;28;20517;-45
2021/09/09 03:14:58;;;;;;;13.30;12.10;;;17.50;99.20;;;;;;5097885;28;20487;-45
2021/09/09 03:17:24;;;;;;;12.70;11.50;;;17.50;99.20;;;;;;5097791;28;20438;-45
2021/09/09 03:19:50;;;;;;;11.60;10.47;;;17.50;99.20;;;;;;5098033;28;20410;-45
2021/09/09 03:22:15;;;;;;;12.67;11.47;;;17.60;99.10;;;;;;5098007;28;20422;-45
2021/09/09 03:24:41;;;;;;;13.40;12.17;;;17.60;99.10;;;;;;5098054;28;20229;-45
2021/09/09 03:27:07;;;;;;;12.43;11.30;;;17.60;99.10;;;;;;5097775;28;20449;-45
2021/09/09 03:29:33;;;;;;;11.40;10.40;;;17.60;99.10;;;;;;5097936;28;20211;-45
2021/09/09 03:31:58;;;;;;;13.27;12.07;;;17.60;99.10;;;;;;5097931;28;20501;-45
2021/09/09 03:34:24;;;;;;;12.67;11.47;;;17.60;99.10;;;;;;5097919;28;20206;-45
2021/09/09 03:36:50;;;;;;;12.63;11.53;;;17.60;99.00;;;;;;5097760;28;20297;-45
2021/09/09 03:39:16;;;;;;;12.90;11.60;;;17.60;98.90;;;;;;5097921;28;20202;-45
2021/09/09 03:41:41;;;;;;;10.83;9.90;;;17.60;98.80;;;;;;5097687;28;20426;-45
2021/09/09 03:44:08;;;;;;;12.77;11.53;;;17.60;98.80;;;;;;5098018;28;20679;-45
2021/09/09 03:46:34;;;;;;;11.15;10.20;;;17.60;98.70;;;;;;5097646;28;20184;-45
2021/09/09 03:49:00;;;;;;;13.07;11.87;;;17.60;98.70;;;;;;5098255;28;20666;-45
2021/09/09 03:51:25;;;;;;;13.90;11.30;;;17.60;98.70;;;;;;5097507;28;20494;-45
2021/09/09 03:53:51;;;;;;;11.03;9.93;;;17.60;98.70;;;;;;5097993;28;20437;-45
2021/09/09 03:56:17;;;;;;;12.47;11.27;;;17.60;98.70;;;;;;5097786;28;20480;-45
2021/09/09 03:58:42;;;;;;;11.90;10.90;;;17.70;98.60;;;;;;5097280;28;20414;-45
2021/09/09 04:01:08;;;;;;;13.53;12.23;;;17.70;98.50;;;;;;5097912;28;20406;-45
2021/09/09 04:03:34;;;;;;;13.37;11.70;;;17.60;98.50;;;;;;5097409;28;20268;-47
2021/09/09 04:05:59;;;;;;;12.50;11.20;;;17.70;98.30;;;;;;5100464;28;20262;-47
2021/09/09 04:08:25;;;;;;;11.45;10.45;;;17.80;98.10;;;;;;5101861;28;20518;-47
2021/09/09 04:10:51;;;;;;;13.80;12.60;;;17.80;98.00;;;;;;5101545;28;20176;-47
2021/09/09 04:13:16;;;;;;;12.53;11.33;;;17.90;97.80;;;;;;5101562;28;20430;-47
2021/09/09 04:15:42;;;;;;;12.60;11.40;;;17.90;97.70;;;;;;5101237;28;20172;-47
2021/09/09 04:18:08;;;;;;;12.23;11.02;;;17.90;97.70;;;;;;5101533;28;20207;-47
2021/09/09 04:20:34;;;;;;;11.30;10.30;;;17.90;97.70;;;;;;5101285;28;20586;-47
2021/09/09 04:22:59;;;;;;;12.57;11.27;;;17.90;97.60;;;;;;5101180;28;20215;-47
2021/09/09 04:25:25;;;;;;;11.83;10.63;;;17.90;97.70;;;;;;5101085;28;20452;-47
2021/09/09 04:27:51;;;;;;;11.97;10.87;;;17.80;97.70;;;;;;5101282;28;20169;-47
2021/09/09 04:30:17;;;;;;;11.37;10.27;;;17.80;97.80;;;;;;5101146;28;20555;-47
2021/09/09 04:32:42;;;;;;;11.63;10.63;;;17.80;97.90;;;;;;5101144;28;20224;-47
2021/09/09 04:35:08;;;;;;;11.50;10.50;;;17.70;97.90;;;;;;5099657;28;20183;-47
2021/09/09 04:37:37;;;;;;;11.47;10.40;;;17.70;98.00;;;;;;5100337;28;20623;-47
2021/09/09 04:40:04;;;;;;;11.67;10.57;;;17.70;98.10;;;;;;5100647;28;20407;-47
2021/09/09 04:42:29;;;;;;;11.73;10.73;;;17.70;98.20;;;;;;5099498;28;20502;-47
2021/09/09 04:44:56;;;;;;;12.10;11.00;;;17.70;98.10;;;;;;5099962;28;20204;-47
2021/09/09 04:47:21;;;;;;;13.63;12.23;;;17.70;98.10;;;;;;5099582;28;20185;-47
2021/09/09 04:49:47;;;;;;;12.37;11.37;;;17.70;98.00;;;;;;5100526;28;20201;-47
2021/09/09 04:52:13;;;;;;;12.93;11.87;;;17.70;98.00;;;;;;5100800;28;20434;-47
2021/09/09 04:54:39;;;;;;;12.60;11.50;;;17.70;98.10;;;;;;5100675;28;20186;-47
2021/09/09 04:57:05;;;;;;;12.10;11.00;;;17.60;98.10;;;;;;5100639;28;20180;-47
2021/09/09 04:59:30;;;;;;;12.27;11.07;;;17.70;98.20;;;;;;5100718;28;20422;-47
2021/09/09 05:01:56;;;;;;;13.13;11.93;;;17.60;98.20;;;;;;5100124;28;20503;-47
2021/09/09 05:04:22;;;;;;;13.10;12.00;;;17.60;98.20;;;;;;5100255;28;20204;-47
2021/09/09 05:06:47;;;;;;;12.30;11.20;;;17.70;98.20;;;;;;5099987;28;20245;-47
2021/09/09 05:09:13;;;;;;;13.77;12.30;;;17.70;98.20;;;;;;5099701;28;20489;-47
2021/09/09 05:11:39;;;;;;;11.97;10.87;;;17.70;98.20;;;;;;5099425;28;20187;-47
2021/09/09 05:14:05;;;;;;;12.27;11.17;;;17.70;98.10;;;;;;5100070;28;20414;-47
2021/09/09 05:16:31;;;;;;;13.35;12.20;;;17.80;98.20;;;;;;5099399;28;20454;-47
2021/09/09 05:18:56;;;;;;;12.60;11.33;;;17.80;98.10;;;;;;5098467;28;20194;-47
2021/09/09 05:21:22;;;;;;;11.90;10.80;;;17.90;98.10;;;;;;5098881;28;20192;-47
2021/09/09 05:23:48;;;;;;;11.93;10.93;;;17.80;98.00;;;;;;5097246;28;20187;-46
2021/09/09 05:26:14;;;;;;;13.33;11.87;;;17.90;98.10;;;;;;5098938;28;20176;-47
2021/09/09 05:28:39;;;;;;;11.83;10.83;;;17.90;98.10;;;;;;5098948;28;20415;-47
2021/09/09 05:31:05;;;;;;;11.20;10.20;;;18.00;98.10;;;;;;5097359;28;20465;-47
2021/09/09 05:33:31;;;;;;;11.43;10.40;;;18.00;98.00;;;;;;5099830;28;20439;-47
2021/09/09 05:35:57;;;;;;;13.13;11.83;;;18.20;97.70;;;;;;5098569;28;20474;-47
2021/09/09 05:38:22;;;;;;;11.80;10.60;;;18.20;97.50;;;;;;5099448;28;20173;-47
2021/09/09 05:40:50;;;;;;;11.73;10.50;;;18.30;97.50;;;;;;5098713;28;20168;-47
2021/09/09 05:43:17;;;;;;;13.45;12.18;;;18.30;97.40;;;;;;5097796;28;20588;-47
2021/09/09 05:45:43;;;;;;;12.80;11.60;;;18.40;97.20;;;;;;5097916;28;20547;-47
2021/09/09 05:48:09;;;;;;;12.23;10.97;;;18.40;97.40;;;;;;5098345;28;20525;-47
2021/09/09 05:50:34;;;;;;;12.47;11.17;;;18.50;97.10;;;;;;5098591;28;20896;-47
2021/09/09 05:53:00;;;;;;;11.90;10.93;;;18.60;97.10;;;;;;5098751;28;20685;-47
2021/09/09 05:55:26;;;;;;;11.30;10.37;;;18.60;97.00;;;;;;5098578;28;20517;-47
2021/09/09 05:57:51;;;;;;;12.50;11.40;;;18.70;97.00;;;;;;5097986;28;20204;-47
2021/09/09 06:00:17;;;;;;;12.53;11.43;;;18.80;97.00;;;;;;5098170;28;20180;-47
2021/09/09 06:02:46;;;;;;;10.77;9.83;;;18.90;96.80;;;;;;5097938;28;20430;-47
2021/09/09 06:05:12;;;;;;;10.43;9.52;;;19.10;96.20;;;;;;5098129;28;20485;-46
2021/09/09 06:07:38;;;;;;;11.77;10.77;;;19.20;96.10;;;;;;5098680;28;20177;-48
2021/09/09 06:10:05;;;;;;;11.77;10.80;;;19.50;96.10;;;;;;5098773;28;20506;-47
2021/09/09 06:12:31;;;;;;;11.80;10.60;;;19.70;95.70;;;;;;5098910;28;20200;-47
2021/09/09 06:14:57;;;;;;;10.93;10.03;;;19.90;95.30;;;;;;5097545;28;20820;-47
2021/09/09 06:17:23;;;;;;;12.43;11.20;;;20.20;95.00;;;;;;5098583;28;20176;-47
2021/09/09 06:19:49;;;;;;;10.85;9.85;;;20.40;94.70;;;;;;5097392;28;20505;-48
2021/09/09 06:22:14;;;;;;;10.90;10.00;;;20.70;94.40;;;;;;5099118;28;20267;-47
2021/09/09 06:24:40;;;;;;;11.10;10.10;;;20.90;94.20;;;;;;5098957;28;20311;-48
2021/09/09 06:27:06;;;;;;;12.30;11.07;;;21.00;93.80;;;;;;5097031;28;20571;-48
2021/09/09 06:29:32;;;;;;;12.00;10.90;;;21.10;93.40;;;;;;5098475;28;20528;-48
2021/09/09 06:31:58;;;;;;;11.50;10.50;;;21.30;93.30;;;;;;5098208;28;20507;-48
2021/09/09 06:34:23;;;;;;;11.37;10.37;;;21.50;92.70;;;;;;5097492;28;20414;-47
2021/09/09 06:36:49;;;;;;;11.03;10.03;;;21.50;92.60;;;;;;5097668;28;20176;-48
2021/09/09 06:39:15;;;;;;;12.13;11.10;;;21.50;92.40;;;;;;5098160;28;20183;-47
2021/09/09 06:41:45;;;;;;;10.90;10.00;;;21.50;92.40;;;;;;5098117;28;20567;-48
2021/09/09 06:44:14;;;;;;;11.47;10.53;;;21.70;92.40;;;;;;5097926;28;20291;-48
2021/09/09 06:46:41;;;;;;;12.53;11.43;;;21.90;92.30;;;;;;5095410;28;20426;-48
2021/09/09 06:49:07;;;;;;;12.60;11.50;;;22.00;92.30;;;;;;5096813;28;20433;-48
2021/09/09 06:51:33;;;;;;;12.63;11.47;;;21.80;92.00;;;;;;5097005;28;20204;-47
2021/09/09 06:53:59;;;;;;;12.13;11.03;;;22.30;91.90;;;;;;5096590;28;20429;-48
2021/09/09 06:56:26;;;;;;;12.00;10.90;;;22.60;91.40;;;;;;5096872;28;20438;-47
2021/09/09 06:58:52;;;;;;;11.37;10.47;;;22.70;91.20;;;;;;5094581;28;20180;-45
2021/09/09 07:01:17;;;;;;;12.20;11.00;;;22.60;91.00;;;;;;5093601;28;20552;-48
2021/09/09 07:03:43;;;;;;;11.77;10.63;;;22.50;91.10;;;;;;5094488;28;20411;-48
2021/09/09 07:06:10;;;;;;;12.17;11.17;;;22.30;91.40;;;;;;5093121;28;20521;-48
2021/09/09 07:08:36;;;;;;;11.98;10.77;;;22.20;91.30;;;;;;5093757;28;20413;-46
2021/09/09 07:11:01;;;;;;;11.67;10.60;;;22.10;91.80;;;;;;5092824;28;20172;-48
2021/09/09 07:13:31;;;;;;;11.80;10.70;;;21.90;91.90;;;;;;5093671;28;20702;-48
2021/09/09 07:15:58;;;;;;;12.13;11.13;;;21.90;91.90;;;;;;5094803;28;20180;-48
2021/09/09 07:18:24;;;;;;;11.53;10.53;;;22.20;91.90;;;;;;5078256;28;20430;-45
2021/09/09 07:20:50;;;;;;;12.07;11.07;;;22.40;91.80;;;;;;5095383;28;20423;-48
2021/09/09 07:23:16;;;;;;;14.03;12.40;;;22.50;91.30;;;;;;5095746;28;20171;-45
2021/09/09 07:25:42;;;;;;;12.00;11.00;;;22.60;91.30;;;;;;5096394;28;20469;-45
2021/09/09 07:28:08;;;;;;;11.40;10.30;;;22.90;90.90;;;;;;5096667;28;20225;-46
2021/09/09 07:30:35;;;;;;;12.40;11.20;;;23.10;90.70;;;;;;5096865;28;20421;-46
2021/09/09 07:33:02;;;;;;;11.43;10.40;;;23.00;90.60;;;;;;5096234;28;20470;-47
2021/09/09 07:35:27;;;;;;;11.97;10.80;;;23.60;90.50;;;;;;5078773;28;20423;-48
2021/09/09 07:37:54;;;;;;;11.60;10.70;;;24.00;89.40;;;;;;5092697;28;20434;-46
2021/09/09 07:40:20;;;;;;;11.77;10.87;;;24.60;87.80;;;;;;5096394;28;20181;-51
2021/09/09 07:42:46;;;;;;;11.25;10.35;;;24.60;87.40;;;;;;5098812;28;20426;-46
2021/09/09 07:45:12;;;;;;;12.30;11.27;;;24.60;86.70;;;;;;5100257;28;20211;-46
2021/09/09 07:47:38;;;;;;;11.33;10.33;;;24.80;86.30;;;;;;5100541;28;20176;-46
2021/09/09 07:50:08;;;;;;;11.43;10.53;;;24.70;84.90;;;;;;5100049;28;20483;-46
2021/09/09 07:52:37;;;;;;;12.80;11.43;;;24.50;85.40;;;;;;5100177;28;20245;-46
2021/09/09 07:55:04;;;;;;;11.57;10.60;;;24.40;85.40;;;;;;5100296;28;20670;-46
2021/09/09 07:57:30;;;;;;;11.03;9.93;;;24.10;86.50;;;;;;5099300;28;20855;-47
2021/09/09 07:59:55;;;;;;;11.00;10.00;;;24.10;87.00;;;;;;5099717;28;20436;-47
2021/09/09 08:02:21;;;;;;;11.50;10.43;;;23.70;87.60;;;;;;5099828;28;20706;-47
2021/09/09 08:04:47;;;;;;;11.70;10.70;;;23.60;87.60;;;;;;5081607;28;20236;-47
2021/09/09 08:07:13;;;;;;;10.20;9.40;;;23.20;88.20;;;;;;5095629;28;20186;-46
2021/09/09 08:09:38;;;;;;;11.80;10.80;;;23.10;87.90;;;;;;5100587;28;20926;-47
2021/09/09 08:12:06;;;;;;;11.70;10.57;;;22.80;89.10;;;;;;5099996;28;20203;-47
2021/09/09 08:14:32;;;;;;;11.90;10.90;;;22.80;89.20;;;;;;5099486;28;20185;-46
2021/09/09 08:16:57;;;;;;;11.53;10.50;;;22.80;89.70;;;;;;5099612;28;20483;-47
2021/09/09 08:19:23;;;;;;;10.40;9.60;;;23.00;89.50;;;;;;5099110;28;20429;-47
2021/09/09 08:21:49;;;;;;;11.87;10.87;;;23.40;88.70;;;;;;5098546;28;20191;-47
2021/09/09 08:24:14;;;;;;;11.60;10.60;;;24.60;86.10;;;;;;5098827;28;20582;-47
2021/09/09 08:26:40;;;;;;;10.50;9.70;;;25.10;84.10;;;;;;5098936;28;20172;-47
2021/09/09 08:29:06;;;;;;;11.43;10.33;;;25.00;83.60;;;;;;5097990;28;20223;-46
2021/09/09 08:31:32;;;;;;;10.07;9.17;;;25.20;83.00;;;;;;5098292;28;20284;-47
2021/09/09 08:33:58;;;;;;;9.95;9.15;;;26.20;80.00;;;;;;5098315;28;20510;-46
2021/09/09 08:36:24;;;;;;;10.70;9.77;;;27.00;76.40;;;;;;5098544;28;20177;-46
2021/09/09 08:38:50;;;;;;;11.47;10.47;;;27.60;74.10;;;;;;5099248;28;20430;-46
2021/09/09 08:41:18;;;;;;;11.00;10.05;;;28.40;70.10;;;;;;5099582;28;20429;-46
2021/09/09 08:43:44;;;;;;;10.73;9.83;;;28.90;69.30;;;;;;5099383;28;20175;-46
2021/09/09 08:46:11;;;;;;;10.70;9.70;;;29.70;65.70;;;;;;5097820;28;20403;-46
2021/09/09 08:48:39;;;;;;;10.32;9.52;;;30.20;63.50;;;;;;5096527;28;20670;-46
2021/09/09 08:51:05;;;;;;;11.47;10.17;;;31.10;61.60;;;;;;5095950;28;20180;-46
2021/09/09 08:53:31;;;;;;;10.60;9.60;;;31.00;59.90;;;;;;5096337;28;20974;-46
2021/09/09 08:55:56;;;;;;;11.07;10.17;;;31.50;58.90;;;;;;5094302;28;20410;-46
2021/09/09 08:58:22;;;;;;;11.50;10.40;;;30.20;59.90;;;;;;5094789;28;20259;-46
2021/09/09 09:01:18;;;;;;;10.97;10.00;;;29.50;62.10;;;;;;5096734;28;20283;-46
2021/09/09 09:03:45;;;;;;;10.87;9.97;;;29.10;63.30;;;;;;5097350;28;20745;-46
2021/09/09 09:06:23;;;;;;;12.23;11.17;;;28.70;64.80;;;;;;5096246;28;20442;-46
2021/09/09 09:08:51;;;;;;;11.70;10.70;;;28.60;64.30;;;;;;5097312;28;20540;-46
2021/09/09 09:11:26;;;;;;;11.90;10.87;;;29.30;64.50;;;;;;5097625;28;20414;-40
2021/09/09 09:13:52;;;;;;;11.97;10.90;;;29.70;62.40;;;;;;5097575;28;20410;-39
2021/09/09 09:16:19;;;;;;;10.27;9.20;;;29.80;62.90;;;;;;5096902;28;20411;-38
2021/09/09 09:18:46;;;;;;;10.70;9.90;;;29.30;62.70;;;;;;5097320;28;20427;-40
2021/09/09 09:21:12;;;;;;;11.30;10.20;;;28.70;64.40;;;;;;5095596;28;20411;-41
2021/09/09 09:23:46;;;;;;;13.50;10.73;;;28.20;65.40;;;;;;5097660;28;20365;-40
2021/09/09 09:26:12;;;;;;;10.80;9.97;;;27.70;65.70;;;;;;5096909;28;20422;-40
2021/09/09 09:28:46;;;;;;;11.40;10.47;;;27.10;67.30;;;;;;5099210;28;20447;-39
2021/09/09 09:31:16;;;;;;;10.43;9.43;;;26.70;66.90;;;;;;5098765;28;20611;-39
2021/09/09 09:33:44;;;;;;;9.47;8.63;;;26.80;68.50;;;;;;5097533;28;20514;-40
2021/09/09 09:36:13;;;;;;;9.27;8.37;;;27.20;68.10;;;;;;5095532;28;20406;-40
2021/09/09 09:38:40;;;;;;;8.23;7.53;;;27.10;66.30;;;;;;5096309;28;20429;-39
2021/09/09 09:41:06;;;;;;;9.07;8.10;;;27.20;64.30;;;;;;5096902;28;20820;-39
2021/09/09 09:43:31;;;;;;;9.97;8.93;;;27.30;62.40;;;;;;5097589;28;20414;-41
2021/09/09 09:45:58;;;;;;;8.63;8.00;;;27.30;64.10;;;;;;5096695;28;20964;-42
2021/09/09 09:48:30;;;;;;;10.60;8.67;;;27.20;64.00;;;;;;5095784;28;20196;-39
2021/09/09 09:50:56;;;;;;;9.63;8.83;;;27.40;63.10;;;;;;5097736;28;20411;-42
2021/09/09 09:53:21;;;;;;;16.80;8.40;;;27.80;62.50;;;;;;5097240;28;20423;-39
2021/09/09 09:55:48;;;;;;;9.27;8.47;;;28.10;60.70;;;;;;5098413;28;20491;-41
2021/09/09 09:58:15;;;;;;;9.50;8.50;;;27.80;61.70;;;;;;5097741;28;20161;-41
2021/09/09 10:00:41;;;;;;;8.60;7.90;;;28.40;60.50;;;;;;5096938;28;20442;-41
2021/09/09 10:03:07;;;;;;;9.17;8.37;;;28.40;61.00;;;;;;5095553;28;20815;-41
2021/09/09 10:05:37;;;;;;;9.43;8.03;;;27.80;60.30;;;;;;5095098;28;20565;-41
2021/09/09 10:08:04;;;;;;;9.93;9.10;;;27.90;60.40;;;;;;5096279;28;20164;-41
2021/09/09 10:10:31;;;;;;;8.83;8.10;;;28.00;61.40;;;;;;5096967;28;20696;-40
2021/09/09 10:12:57;;;;;;;8.30;7.50;;;27.80;61.70;;;;;;5096035;28;20670;-39
2021/09/09 10:15:23;;;;;;;9.17;8.37;;;27.30;63.30;;;;;;5096058;28;20414;-40
2021/09/09 10:17:49;;;;;;;9.13;8.37;;;27.50;63.30;;;;;;5098427;28;20684;-39
2021/09/09 10:20:32;;;;;;;8.63;7.93;;;27.10;63.50;;;;;;5097061;28;20419;-40
2021/09/09 10:23:09;;;;;;;7.57;6.90;;;27.30;63.60;;;;;;5098301;28;20418;-39
2021/09/09 10:25:52;;;;;;;7.73;6.93;;;26.90;63.10;;;;;;5095002;28;20780;-41
2021/09/09 10:28:38;;;;;;;7.57;6.97;;;26.30;66.00;;;;;;5097252;28;20414;-41
2021/09/09 10:31:06;;;;;;;8.10;7.30;;;25.90;66.70;;;;;;5097523;28;20731;-42
2021/09/09 10:33:32;;;;;;;8.07;7.27;;;25.80;67.00;;;;;;5097699;28;20414;-44
2021/09/09 10:35:58;;;;;;;9.20;7.80;;;25.60;67.60;;;;;;5097414;28;20418;-40
2021/09/09 10:38:32;;;;;;;7.33;6.73;;;25.60;69.00;;;;;;5096361;28;20458;-41
2021/09/09 10:41:01;;;;;;;7.30;6.70;;;25.80;69.50;;;;;;5098075;28;20525;-42
2021/09/09 10:43:29;;;;;;;7.97;7.27;;;25.90;69.80;;;;;;5095893;28;20477;-40
2021/09/09 10:46:02;;;;;;;7.90;7.20;;;25.80;68.90;;;;;;5096688;28;20485;-43
2021/09/09 10:48:29;;;;;;;8.70;7.90;;;26.00;69.70;;;;;;5096722;28;20839;-43
2021/09/09 10:51:07;;;;;;;7.60;6.80;;;26.40;67.40;;;;;;5095569;28;20410;-40
2021/09/09 10:53:44;;;;;;;8.40;7.30;;;27.00;65.60;;;;;;5095768;28;20203;-43
2021/09/09 10:56:15;;;;;;;7.10;6.57;;;27.30;65.40;;;;;;5096514;28;20422;-41
2021/09/09 10:58:42;;;;;;;7.73;7.03;;;27.50;63.00;;;;;;5097219;28;20648;-41
2021/09/09 11:01:09;;;;;;;6.80;6.30;;;27.70;62.90;;;;;;5097520;28;20419;-40
2021/09/09 11:03:36;;;;;;;7.17;6.57;;;27.10;59.70;;;;;;5096937;28;20430;-42
2021/09/09 11:06:04;;;;;;;7.27;6.57;;;26.80;60.70;;;;;;5095552;28;20539;-41
2021/09/09 11:08:30;;;;;;;7.83;7.20;;;27.40;61.00;;;;;;5091832;28;20546;-42
2021/09/09 11:10:56;;;;;;;7.37;6.77;;;27.90;58.90;;;;;;5093871;28;20402;-42
2021/09/09 11:13:29;;;;;;;7.80;7.10;;;27.80;58.60;;;;;;5092826;28;20900;-43
2021/09/09 11:15:55;;;;;;;6.65;6.15;;;28.20;58.10;;;;;;5093515;28;20176;-42
2021/09/09 11:18:30;;;;;;;8.13;7.33;;;28.60;58.10;;;;;;5095506;28;20180;-43
2021/09/09 11:21:02;;;;;;;7.70;7.00;;;28.60;58.20;;;;;;5096829;28;20406;-41
2021/09/09 11:23:28;;;;;;;8.00;7.30;;;28.70;58.50;;;;;;5096608;28;20180;-41
2021/09/09 11:25:54;;;;;;;11.50;7.43;;;29.20;57.90;;;;;;5096825;28;20469;-41
2021/09/09 11:28:20;;;;;;;8.20;7.43;;;29.00;58.00;;;;;;5094442;28;20560;-44
2021/09/09 11:31:13;;;;;;;10.20;8.13;;;29.00;58.20;;;;;;5093121;28;20487;-41
2021/09/09 11:33:51;;;;;;;8.83;8.07;;;28.80;58.50;;;;;;5093591;28;20428;-42
2021/09/09 11:36:18;;;;;;;8.67;7.97;;;29.20;58.00;;;;;;5092646;28;21013;-41
2021/09/09 11:38:44;;;;;;;8.83;8.03;;;29.40;57.40;;;;;;5091815;28;20460;-41
2021/09/09 11:41:13;;;;;;;8.87;8.17;;;28.70;58.30;;;;;;5091980;28;20881;-40
2021/09/09 11:43:59;;;;;;;8.70;7.73;;;28.50;58.80;;;;;;5074964;28;20515;-40
2021/09/09 11:46:35;;;;;;;8.70;7.90;;;28.20;58.20;;;;;;5093581;28;20442;-41
2021/09/09 11:49:09;;;;;;;9.20;8.40;;;28.10;58.10;;;;;;5095911;28;20418;-42
2021/09/09 11:51:43;;;;;;;9.57;8.67;;;27.90;58.40;;;;;;5096101;28;20671;-42
2021/09/09 11:54:20;;;;;;;8.33;7.67;;;27.70;57.90;;;;;;5095228;28;20446;-42
2021/09/09 11:56:49;;;;;;;8.07;7.37;;;28.00;58.00;;;;;;5097162;28;20410;-41
2021/09/09 11:59:20;;;;;;;8.60;7.90;;;28.30;57.20;;;;;;5096596;28;20514;-41
2021/09/09 12:01:52;;;;;;;8.90;8.20;;;28.80;57.80;;;;;;5096010;28;20426;-41
2021/09/09 12:04:21;;;;;;;9.00;8.20;;;29.30;56.40;;;;;;5096773;28;20802;-41
2021/09/09 12:06:47;;;;;;;8.57;7.70;;;29.70;55.30;;;;;;5097768;28;20456;-44
2021/09/09 12:09:27;;;;;;;8.13;7.45;;;29.80;54.30;;;;;;5096581;28;20601;-44
2021/09/09 12:12:09;;;;;;;8.53;7.70;;;29.90;54.20;;;;;;5097688;28;20191;-46
2021/09/09 12:14:37;;;;;;;8.97;7.30;;;29.50;54.40;;;;;;5096854;28;20430;-44
2021/09/09 12:17:06;;;;;;;9.53;8.20;;;28.80;55.20;;;;;;5096401;28;20406;-42
2021/09/09 12:20:07;;;;;;;8.10;7.30;;;28.90;55.80;;;;;;5096049;28;20445;-40
2021/09/09 12:22:45;;;;;;;8.20;7.50;;;28.40;55.30;;;;;;5094156;28;20456;-44
2021/09/09 12:25:17;;;;;;;7.80;7.07;;;29.30;54.30;;;;;;5094471;28;20649;-42
2021/09/09 12:28:00;;;;;;;8.60;7.70;;;29.40;54.20;;;;;;5096484;28;20425;-42
2021/09/09 12:30:31;;;;;;;7.90;7.20;;;29.30;53.90;;;;;;5098433;28;20780;-42
2021/09/09 12:32:58;;;;;;;9.47;8.53;;;28.70;53.60;;;;;;5097614;28;20531;-41